createdAt,value
2018-12-20T00:02:27.507Z,42.27
2018-12-20T00:04:55.279Z,43.73
2018-12-20T00:07:22.804Z,41.70
2018-12-20T00:09:50.478Z,47.90
2018-12-20T00:12:18.010Z,41.20
2018-12-20T00:14:45.542Z,44.53
2018-12-20T00:17:18.953Z,42.90
2018-12-20T00:19:46.618Z,52.03
2018-12-20T00:22:14.078Z,61.60
2018-12-20T00:24:41.783Z,65.83
2018-12-20T00:27:09.412Z,72.93
2018-12-20T00:29:36.981Z,51.20
2018-12-20T00:32:04.639Z,59.70
2018-12-20T00:34:32.288Z,49.40
2018-12-20T00:36:59.972Z,48.20
2018-12-20T00:39:27.640Z,43.70
2018-12-20T00:41:55.180Z,48.20
2018-12-20T00:44:22.717Z,48.47
2018-12-20T00:46:50.514Z,41.23
2018-12-20T00:49:18.100Z,44.37
2018-12-20T00:51:45.701Z,42.03
2018-12-20T00:54:13.420Z,38.63
2018-12-20T00:56:41.066Z,47.73
2018-12-20T00:59:08.587Z,33.23
2018-12-20T01:01:36.398Z,43.03
2018-12-20T01:04:03.885Z,37.33
2018-12-20T01:06:31.452Z,39.60
2018-12-20T01:08:59.330Z,47.53
2018-12-20T01:11:26.895Z,49.60
2018-12-20T01:13:54.675Z,39.10
2018-12-20T01:16:22.185Z,41.00
2018-12-20T01:18:49.838Z,41.20
2018-12-20T01:21:17.440Z,38.60
2018-12-20T01:23:45.101Z,38.23
2018-12-20T01:26:12.720Z,39.97
2018-12-20T01:28:40.305Z,38.57
2018-12-20T01:31:08.179Z,41.03
2018-12-20T01:33:35.682Z,42.33
2018-12-20T01:36:03.228Z,42.93
2018-12-20T01:38:30.992Z,38.03
2018-12-20T01:40:58.567Z,40.27
2018-12-20T01:43:26.151Z,39.67
2018-12-20T01:45:54.036Z,40.33
2018-12-20T01:48:21.730Z,41.47
2018-12-20T01:50:49.293Z,36.53
2018-12-20T01:53:16.864Z,38.07
2018-12-20T01:55:44.519Z,35.97
2018-12-20T01:58:12.003Z,42.83
2018-12-20T02:00:39.779Z,37.00
2018-12-20T02:03:07.391Z,41.90
2018-12-20T02:05:34.921Z,40.90
2018-12-20T02:08:02.768Z,34.70
2018-12-20T02:10:30.379Z,33.83
2018-12-20T02:12:57.905Z,33.77
2018-12-20T02:15:25.721Z,31.33
2018-12-20T02:17:53.260Z,32.07
2018-12-20T02:20:20.950Z,30.77
2018-12-20T02:22:48.598Z,33.03
2018-12-20T02:25:16.154Z,31.70
2018-12-20T02:27:43.717Z,31.67
2018-12-20T02:30:11.796Z,30.00
2018-12-20T02:32:39.206Z,29.77
2018-12-20T02:35:07.008Z,31.63
2018-12-20T02:37:34.556Z,28.03
2018-12-20T02:40:02.342Z,31.03
2018-12-20T02:42:29.746Z,31.33
2018-12-20T02:44:57.687Z,33.63
2018-12-20T02:47:25.100Z,34.73
2018-12-20T02:49:52.632Z,38.07
2018-12-20T02:52:20.342Z,37.83
2018-12-20T02:54:48.029Z,39.10
2018-12-20T02:57:15.788Z,29.03
2018-12-20T02:59:43.475Z,28.40
2018-12-20T03:02:11.197Z,31.03
2018-12-20T03:04:38.799Z,30.77
2018-12-20T03:07:06.552Z,38.33
2018-12-20T03:09:34.083Z,40.67
2018-12-20T03:12:01.660Z,52.17
2018-12-20T03:14:29.379Z,67.27
2018-12-20T03:16:57.060Z,63.53
2018-12-20T03:19:24.475Z,56.47
2018-12-20T03:21:52.117Z,60.50
2018-12-20T03:24:19.676Z,64.83
2018-12-20T03:26:47.239Z,65.77
2018-12-20T03:29:15.191Z,57.53
2018-12-20T03:31:42.528Z,57.03
2018-12-20T03:34:10.135Z,82.93
2018-12-20T03:36:37.831Z,57.20
2018-12-20T03:39:05.672Z,48.53
2018-12-20T03:41:33.132Z,47.97
2018-12-20T03:44:00.800Z,52.23
2018-12-20T03:46:28.414Z,47.77
2018-12-20T03:48:56.193Z,45.10
2018-12-20T03:51:23.956Z,44.50
2018-12-20T03:53:51.544Z,51.23
2018-12-20T03:56:19.095Z,51.33
2018-12-20T03:58:47.028Z,50.70
2018-12-20T04:01:14.539Z,44.43
2018-12-20T04:03:42.143Z,52.87
2018-12-20T04:06:09.821Z,60.80
2018-12-20T04:08:37.380Z,51.40
2018-12-20T04:11:04.946Z,57.70
2018-12-20T04:13:32.710Z,52.63
2018-12-20T04:16:00.266Z,42.57
2018-12-20T04:18:28.124Z,45.13
2018-12-20T04:20:55.497Z,37.17
2018-12-20T04:23:23.065Z,38.67
2018-12-20T04:25:50.743Z,37.47
2018-12-20T04:28:18.477Z,37.33
2018-12-20T04:30:45.955Z,35.77
2018-12-20T04:33:13.655Z,42.20
2018-12-20T04:35:41.503Z,41.33
2018-12-20T04:38:08.937Z,36.77
2018-12-20T04:40:36.556Z,48.37
2018-12-20T04:43:04.438Z,40.37
2018-12-20T04:45:32.016Z,39.70
2018-12-20T04:47:59.562Z,49.13
2018-12-20T04:50:27.274Z,41.87
2018-12-20T04:52:54.993Z,41.53
2018-12-20T04:55:22.540Z,42.30
2018-12-20T04:57:50.312Z,42.10
2018-12-20T05:00:17.874Z,37.60
2018-12-20T05:02:45.457Z,38.27
2018-12-20T05:05:13.481Z,39.03
2018-12-20T05:07:40.987Z,41.27
2018-12-20T05:10:08.469Z,44.27
2018-12-20T05:12:36.472Z,38.13
2018-12-20T05:15:04.158Z,39.63
2018-12-20T05:17:31.684Z,40.07
2018-12-20T05:19:59.384Z,44.93
2018-12-20T05:22:26.933Z,47.17
2018-12-20T05:24:54.661Z,49.20
2018-12-20T05:27:22.148Z,42.03
2018-12-20T05:29:49.921Z,43.10
2018-12-20T05:32:17.297Z,41.80
2018-12-20T05:34:45.154Z,43.63
2018-12-20T05:37:12.878Z,41.53
2018-12-20T05:39:40.270Z,37.30
2018-12-20T05:42:09.320Z,37.20
2018-12-20T05:44:36.848Z,38.53
2018-12-20T05:47:04.708Z,43.70
2018-12-20T05:49:32.378Z,41.03
2018-12-20T05:52:00.741Z,41.30
2018-12-20T05:54:28.473Z,46.23
2018-12-20T05:56:56.484Z,42.27
2018-12-20T05:59:24.038Z,41.87
2018-12-20T06:01:51.607Z,46.03
2018-12-20T06:04:19.266Z,41.60
2018-12-20T06:06:47.005Z,39.90
2018-12-20T06:09:14.772Z,41.93
2018-12-20T06:11:42.375Z,47.37
2018-12-20T06:14:09.933Z,42.23
2018-12-20T06:16:37.805Z,38.13
2018-12-20T06:19:05.438Z,46.23
2018-12-20T06:21:33.000Z,44.10
2018-12-20T06:24:00.540Z,36.30
2018-12-20T06:26:28.256Z,42.57
2018-12-20T06:28:55.801Z,33.57
2018-12-20T06:31:23.374Z,36.03
2018-12-20T06:33:51.224Z,38.67
2018-12-20T06:36:18.771Z,36.20
2018-12-20T06:38:46.333Z,37.33
2018-12-20T06:41:15.041Z,37.43
2018-12-20T06:43:42.616Z,38.10
2018-12-20T06:46:10.176Z,39.17
2018-12-20T06:48:37.898Z,39.63
2018-12-20T06:51:05.480Z,39.10
2018-12-20T06:53:33.077Z,120.80
2018-12-20T06:56:11.234Z,58.10
2018-12-20T06:58:38.799Z,41.77
2018-12-20T07:01:06.360Z,36.93
2018-12-20T07:03:34.191Z,39.63
2018-12-20T07:06:01.780Z,38.60
2018-12-20T07:08:29.346Z,45.57
2018-12-20T07:11:14.856Z,48.20
2018-12-20T07:13:42.425Z,57.83
2018-12-20T07:16:09.974Z,60.57
2018-12-20T07:18:37.719Z,61.13
2018-12-20T07:21:05.292Z,60.43
2018-12-20T07:23:32.891Z,57.63
2018-12-20T07:26:00.482Z,82.77
2018-12-20T07:28:28.072Z,74.37
2018-12-20T07:30:55.664Z,63.23
2018-12-20T07:33:23.418Z,70.10
2018-12-20T07:35:50.960Z,146.07
2018-12-20T07:38:18.549Z,140.43
2018-12-20T07:40:46.281Z,114.00
2018-12-20T07:43:13.851Z,93.10
2018-12-20T07:45:41.417Z,85.77
2018-12-20T07:48:09.308Z,76.83
2018-12-20T07:50:36.843Z,68.23
2018-12-20T07:53:04.406Z,67.20
2018-12-20T07:55:32.015Z,69.50
2018-12-20T07:57:59.567Z,61.83
2018-12-20T08:00:27.182Z,52.43
2018-12-20T08:02:54.797Z,61.90
2018-12-20T08:05:22.369Z,60.07
2018-12-20T08:07:49.925Z,56.60
2018-12-20T08:10:17.796Z,73.10
2018-12-20T08:12:45.356Z,60.43
2018-12-20T08:15:12.905Z,70.60
2018-12-20T08:17:40.510Z,72.67
2018-12-20T08:20:08.105Z,68.77
2018-12-20T08:22:35.636Z,66.10
2018-12-20T08:25:03.238Z,69.47
2018-12-20T08:27:30.808Z,62.00
2018-12-20T08:29:58.368Z,54.13
2018-12-20T08:32:26.046Z,57.97
2018-12-20T08:34:53.607Z,79.87
2018-12-20T08:37:21.191Z,68.07
2018-12-20T08:39:48.875Z,66.63
2018-12-20T08:42:16.433Z,83.37
2018-12-20T08:44:44.001Z,108.93
2018-12-20T08:47:11.714Z,114.70
2018-12-20T08:49:39.257Z,107.80
2018-12-20T08:52:06.780Z,99.57
2018-12-20T08:54:34.417Z,111.57
2018-12-20T08:57:01.986Z,114.90
2018-12-20T08:59:29.556Z,121.37
2018-12-20T09:01:57.308Z,113.43
2018-12-20T09:04:24.853Z,113.20
2018-12-20T09:06:52.422Z,106.73
2018-12-20T09:09:20.280Z,115.40
2018-12-20T09:11:47.824Z,106.47
2018-12-20T09:14:16.273Z,113.73
2018-12-20T09:16:43.293Z,104.93
2018-12-20T09:19:10.840Z,98.23
2018-12-20T09:21:38.373Z,99.00
2018-12-20T09:24:06.158Z,111.90
2018-12-20T09:26:33.710Z,107.83
2018-12-20T09:29:01.250Z,116.87
2018-12-20T09:31:28.878Z,98.27
2018-12-20T09:33:56.436Z,95.60
2018-12-20T09:36:24.035Z,97.37
2018-12-20T09:38:51.646Z,94.90
2018-12-20T09:41:19.201Z,101.73
2018-12-20T09:43:46.764Z,108.17
2018-12-20T09:46:14.418Z,81.83
2018-12-20T09:48:41.956Z,88.40
2018-12-20T09:51:09.565Z,77.60
2018-12-20T09:53:37.434Z,79.93
2018-12-20T09:56:05.030Z,78.70
2018-12-20T09:58:32.569Z,85.47
2018-12-20T10:01:00.161Z,78.53
2018-12-20T10:03:27.725Z,77.03
2018-12-20T10:05:55.292Z,78.57
2018-12-20T10:08:22.957Z,76.07
2018-12-20T10:10:50.547Z,72.67
2018-12-20T10:13:18.109Z,81.57
2018-12-20T10:15:45.842Z,80.50
2018-12-20T10:18:13.407Z,72.90
2018-12-20T10:20:40.950Z,76.27
2018-12-20T10:23:08.654Z,80.17
2018-12-20T10:25:36.210Z,72.80
2018-12-20T10:28:03.817Z,71.73
2018-12-20T10:30:31.542Z,77.00
2018-12-20T10:32:59.106Z,70.43
2018-12-20T10:35:26.661Z,74.70
2018-12-20T10:37:54.633Z,74.73
2018-12-20T10:40:22.197Z,74.87
2018-12-20T10:42:49.755Z,85.17
2018-12-20T10:45:17.481Z,111.00
2018-12-20T10:47:45.063Z,92.10
2018-12-20T10:50:12.616Z,70.70
2018-12-20T10:52:40.209Z,69.93
2018-12-20T10:55:07.849Z,70.40
2018-12-20T10:57:35.501Z,73.80
2018-12-20T11:00:04.523Z,72.73
2018-12-20T11:02:38.139Z,71.13
2018-12-20T11:05:05.896Z,66.40
2018-12-20T11:07:39.024Z,70.93
2018-12-20T11:10:12.424Z,66.57
2018-12-20T11:12:47.465Z,66.33
2018-12-20T11:15:15.363Z,63.60
2018-12-20T11:17:42.905Z,63.80
2018-12-20T11:20:10.493Z,66.50
2018-12-20T11:22:38.173Z,68.30
2018-12-20T11:25:05.832Z,68.80
2018-12-20T11:27:33.404Z,89.67
2018-12-20T11:30:01.150Z,103.83
2018-12-20T11:32:28.723Z,101.83
2018-12-20T11:34:56.280Z,98.33
2018-12-20T11:37:23.926Z,90.80
2018-12-20T11:39:59.193Z,133.73
2018-12-20T11:42:19.156Z,91.80
2018-12-20T11:44:46.942Z,92.13
2018-12-20T11:47:20.157Z,80.43
2018-12-20T11:49:48.071Z,82.67
2018-12-20T11:52:15.625Z,89.43
2018-12-20T11:54:43.194Z,92.60
2018-12-20T11:57:11.027Z,92.50
2018-12-20T11:59:38.600Z,114.40
2018-12-20T12:02:06.226Z,95.27
2018-12-20T12:04:33.933Z,95.77
2018-12-20T12:07:01.500Z,96.20
2018-12-20T12:09:29.025Z,94.37
2018-12-20T12:11:56.776Z,96.83
2018-12-20T12:14:24.406Z,90.10
2018-12-20T12:16:51.980Z,86.77
2018-12-20T12:19:20.085Z,92.13
2018-12-20T12:21:49.511Z,93.07
2018-12-20T12:24:15.797Z,96.10
2018-12-20T12:26:43.523Z,93.20
2018-12-20T12:29:11.073Z,106.63
2018-12-20T12:31:38.632Z,94.30
2018-12-20T12:34:06.268Z,107.57
2018-12-20T12:36:33.847Z,104.70
2018-12-20T12:39:01.437Z,105.90
2018-12-20T12:41:29.167Z,103.40
2018-12-20T12:43:56.722Z,101.17
2018-12-20T12:46:24.297Z,99.50
2018-12-20T12:48:51.943Z,105.73
2018-12-20T12:51:19.512Z,104.03
2018-12-20T12:53:47.104Z,112.37
2018-12-20T12:56:14.821Z,109.00
2018-12-20T12:58:42.393Z,119.13
2018-12-20T13:01:09.966Z,235.27
2018-12-20T13:03:37.867Z,132.73
2018-12-20T13:06:05.489Z,124.57
2018-12-20T13:08:33.061Z,125.87
2018-12-20T13:11:00.782Z,104.50
2018-12-20T13:13:28.354Z,110.43
2018-12-20T13:15:55.932Z,116.07
2018-12-20T13:18:23.869Z,113.27
2018-12-20T13:20:51.427Z,117.37
2018-12-20T13:23:19.006Z,104.37
2018-12-20T13:25:46.733Z,99.33
2018-12-20T13:28:14.317Z,112.73
2018-12-20T13:30:41.899Z,103.27
2018-12-20T13:33:09.701Z,126.00
2018-12-20T13:35:37.408Z,110.33
2018-12-20T13:38:05.010Z,106.83
2018-12-20T13:40:32.676Z,98.57
2018-12-20T13:43:00.221Z,115.57
2018-12-20T13:45:27.781Z,121.07
2018-12-20T13:47:55.620Z,125.13
2018-12-20T13:50:23.174Z,120.80
2018-12-20T13:52:50.866Z,111.10
2018-12-20T13:55:18.706Z,108.80
2018-12-20T13:57:46.256Z,125.97
2018-12-20T14:00:13.928Z,110.53
2018-12-20T14:02:41.731Z,100.33
2018-12-20T14:05:09.327Z,106.97
2018-12-20T14:07:36.849Z,123.23
2018-12-20T14:10:04.554Z,107.50
2018-12-20T14:12:32.137Z,99.00
2018-12-20T14:14:59.704Z,101.50
2018-12-20T14:17:27.363Z,101.20
2018-12-20T14:19:54.993Z,130.07
2018-12-20T14:22:22.533Z,118.27
2018-12-20T14:24:50.157Z,103.53
2018-12-20T14:27:17.730Z,115.97
2018-12-20T14:29:45.328Z,108.13
2018-12-20T14:32:13.003Z,107.57
2018-12-20T14:34:40.574Z,111.63
2018-12-20T14:37:08.140Z,111.70
2018-12-20T14:39:35.753Z,110.43
2018-12-20T14:42:03.369Z,107.47
2018-12-20T14:44:30.929Z,98.63
2018-12-20T14:46:58.761Z,103.30
2018-12-20T14:49:26.348Z,115.17
2018-12-20T14:51:53.895Z,109.10
2018-12-20T14:54:21.777Z,103.00
2018-12-20T14:56:49.332Z,104.37
2018-12-20T14:59:16.896Z,149.23
2018-12-20T15:01:44.625Z,94.80
2018-12-20T15:04:12.202Z,90.67
2018-12-20T15:06:39.814Z,103.43
2018-12-20T15:09:07.577Z,104.63
2018-12-20T15:11:35.149Z,111.60
2018-12-20T15:14:02.782Z,96.60
2018-12-20T15:16:30.670Z,93.70
2018-12-20T15:18:58.254Z,102.03
2018-12-20T15:21:25.831Z,93.97
2018-12-20T15:23:53.538Z,91.43
2018-12-20T15:26:21.107Z,99.47
2018-12-20T15:28:49.274Z,97.90
2018-12-20T15:31:17.020Z,93.90
2018-12-20T15:33:44.549Z,87.63
2018-12-20T15:36:12.140Z,107.33
2018-12-20T15:38:39.802Z,108.33
2018-12-20T15:41:07.377Z,104.27
2018-12-20T15:43:34.944Z,117.57
2018-12-20T15:46:02.747Z,100.57
2018-12-20T15:48:30.320Z,119.80
2018-12-20T15:50:57.906Z,100.77
2018-12-20T15:53:25.826Z,114.97
2018-12-20T15:55:53.385Z,107.27
2018-12-20T15:58:20.938Z,100.20
2018-12-20T16:00:48.645Z,104.50
2018-12-20T16:03:16.217Z,117.00
2018-12-20T16:05:43.766Z,119.10
2018-12-20T16:08:11.472Z,103.00
2018-12-20T16:10:39.081Z,108.90
2018-12-20T16:13:06.809Z,107.90
2018-12-20T16:15:34.391Z,113.53
2018-12-20T16:18:01.996Z,109.37
2018-12-20T16:20:29.569Z,102.93
2018-12-20T16:22:57.270Z,102.43
2018-12-20T16:25:24.869Z,95.70
2018-12-20T16:27:52.401Z,97.07
2018-12-20T16:30:20.011Z,104.17
2018-12-20T16:32:47.583Z,165.63
2018-12-20T16:35:15.128Z,109.40
2018-12-20T16:37:42.727Z,98.33
2018-12-20T16:40:10.281Z,111.33
2018-12-20T16:42:37.821Z,101.97
2018-12-20T16:45:05.601Z,88.77
2018-12-20T16:47:33.173Z,121.03
2018-12-20T16:50:05.917Z,176.83
2018-12-20T16:52:33.468Z,98.03
2018-12-20T16:55:01.041Z,102.90
2018-12-20T16:57:29.990Z,99.90
2018-12-20T16:59:57.577Z,79.60
2018-12-20T17:02:25.142Z,115.90
2018-12-20T17:04:53.020Z,79.07
2018-12-20T17:07:20.619Z,74.70
2018-12-20T17:09:48.189Z,89.07
2018-12-20T17:12:15.896Z,95.10
2018-12-20T17:14:43.529Z,91.67
2018-12-20T17:17:11.049Z,93.67
2018-12-20T17:19:38.784Z,104.33
2018-12-20T17:22:06.341Z,96.20
2018-12-20T17:24:34.745Z,96.80
2018-12-20T17:27:02.493Z,91.10
2018-12-20T17:29:30.049Z,92.10
2018-12-20T17:31:57.593Z,96.87
2018-12-20T17:34:25.191Z,81.30
2018-12-20T17:36:52.765Z,85.97
2018-12-20T17:39:20.418Z,79.50
2018-12-20T17:41:48.077Z,79.60
2018-12-20T17:44:15.670Z,80.50
2018-12-20T17:46:43.228Z,84.53
2018-12-20T17:49:10.907Z,87.47
2018-12-20T17:51:38.511Z,157.20
2018-12-20T17:54:06.122Z,180.57
2018-12-20T17:56:33.994Z,98.93
2018-12-20T17:59:01.514Z,86.33
2018-12-20T18:01:29.066Z,79.83
2018-12-20T18:03:56.693Z,85.57
2018-12-20T18:06:24.256Z,81.53
2018-12-20T18:08:52.387Z,79.67
2018-12-20T18:11:20.329Z,94.57
2018-12-20T18:13:48.216Z,80.17
2018-12-20T18:16:16.049Z,81.70
2018-12-20T18:18:43.714Z,91.47
2018-12-20T18:21:11.270Z,203.30
2018-12-20T18:23:38.833Z,177.87
2018-12-20T18:26:06.516Z,115.47
2018-12-20T18:28:34.281Z,85.10
2018-12-20T18:31:04.105Z,93.63
2018-12-20T18:33:31.962Z,95.77
2018-12-20T18:35:59.505Z,70.43
2018-12-20T18:38:27.080Z,86.40
2018-12-20T18:40:54.633Z,83.60
2018-12-20T18:43:22.187Z,83.90
2018-12-20T18:45:49.847Z,76.37
2018-12-20T18:48:17.469Z,88.50
2018-12-20T18:50:45.050Z,93.13
2018-12-20T18:53:12.576Z,92.37
2018-12-20T18:55:41.062Z,82.60
2018-12-20T18:58:08.605Z,81.93
2018-12-20T19:00:36.186Z,82.23
2018-12-20T19:03:03.817Z,83.53
2018-12-20T19:05:31.429Z,76.37
2018-12-20T19:07:58.985Z,76.37
2018-12-20T19:10:26.830Z,76.43
2018-12-20T19:12:54.377Z,77.10
2018-12-20T19:15:21.983Z,73.00
2018-12-20T19:17:49.710Z,85.80
2018-12-20T19:20:17.269Z,110.57
2018-12-20T19:22:44.842Z,106.03
2018-12-20T19:25:12.412Z,140.90
2018-12-20T19:27:39.966Z,105.70
2018-12-20T19:30:07.642Z,115.17
2018-12-20T19:32:35.405Z,132.10
2018-12-20T19:35:03.044Z,121.23
2018-12-20T19:37:30.608Z,117.27
2018-12-20T19:39:58.457Z,111.67
2018-12-20T19:42:26.044Z,115.40
2018-12-20T19:44:53.629Z,83.23
2018-12-20T19:47:21.591Z,84.60
2018-12-20T19:49:49.181Z,82.53
2018-12-20T19:52:16.780Z,99.23
2018-12-20T19:54:48.056Z,96.87
2018-12-20T19:57:12.141Z,82.77
2018-12-20T19:59:41.606Z,97.07
2018-12-20T20:02:09.212Z,107.40
2018-12-20T20:04:36.787Z,99.80
2018-12-20T20:07:04.353Z,99.07
2018-12-20T20:09:32.179Z,274.50
2018-12-20T20:11:59.730Z,138.90
2018-12-20T20:14:27.286Z,90.23
2018-12-20T20:16:54.884Z,78.33
2018-12-20T20:19:22.453Z,97.43
2018-12-20T20:21:50.005Z,174.47
2018-12-20T20:24:17.744Z,376.90
2018-12-20T20:26:45.334Z,311.50
2018-12-20T20:29:12.871Z,131.37
2018-12-20T20:31:40.564Z,191.20
2018-12-20T20:34:08.118Z,90.10
2018-12-20T20:36:35.685Z,105.23
2018-12-20T20:39:03.506Z,470.50
2018-12-20T20:41:31.090Z,271.27
2018-12-20T20:43:58.658Z,124.23
2018-12-20T20:46:26.268Z,155.80
2018-12-20T20:48:53.818Z,159.17
2018-12-20T20:51:21.372Z,114.27
2018-12-20T20:53:49.015Z,87.47
2018-12-20T20:56:16.566Z,77.93
2018-12-20T20:58:44.183Z,72.23
2018-12-20T21:01:13.758Z,80.27
2018-12-20T21:03:41.326Z,96.60
2018-12-20T21:06:08.898Z,83.63
2018-12-20T21:08:36.769Z,79.23
2018-12-20T21:11:04.332Z,75.57
2018-12-20T21:13:31.888Z,130.63
2018-12-20T21:15:59.619Z,139.77
2018-12-20T21:18:27.154Z,76.47
2018-12-20T21:20:54.706Z,376.07
2018-12-20T21:23:22.482Z,181.33
2018-12-20T21:25:50.042Z,118.70
2018-12-20T21:28:17.579Z,78.63
2018-12-20T21:30:45.280Z,82.03
2018-12-20T21:33:12.818Z,74.13
2018-12-20T21:35:40.426Z,70.40
2018-12-20T21:38:08.129Z,231.27
2018-12-20T21:40:35.676Z,91.67
2018-12-20T21:43:03.253Z,93.33
2018-12-20T21:45:31.106Z,104.97
2018-12-20T21:47:58.669Z,99.83
2018-12-20T21:50:26.242Z,111.47
2018-12-20T21:52:53.832Z,117.20
2018-12-20T21:55:21.386Z,77.87
2018-12-20T21:57:48.934Z,93.57
2018-12-20T22:00:16.661Z,108.10
2018-12-20T22:02:44.238Z,78.10
2018-12-20T22:05:11.794Z,79.03
2018-12-20T22:07:39.392Z,67.00
2018-12-20T22:10:06.981Z,77.87
2018-12-20T22:12:34.540Z,66.30
2018-12-20T22:15:02.168Z,80.77
2018-12-20T22:17:29.719Z,92.50
2018-12-20T22:19:58.648Z,168.17
2018-12-20T22:22:25.058Z,110.87
2018-12-20T22:24:52.640Z,72.87
2018-12-20T22:27:20.217Z,124.70
2018-12-20T22:29:47.912Z,81.70
2018-12-20T22:32:15.443Z,78.83
2018-12-20T22:34:43.041Z,93.57
2018-12-20T22:37:10.749Z,79.13
2018-12-20T22:39:38.290Z,78.30
2018-12-20T22:42:05.849Z,124.97
2018-12-20T22:44:33.453Z,85.47
2018-12-20T22:47:01.028Z,78.10
2018-12-20T22:49:28.571Z,103.97
2018-12-20T22:51:56.293Z,82.80
2018-12-20T22:54:23.868Z,83.77
2018-12-20T22:56:51.441Z,76.60
2018-12-20T22:59:19.081Z,101.50
2018-12-20T23:01:46.670Z,109.93
2018-12-20T23:04:14.249Z,92.73
2018-12-20T23:06:41.980Z,79.07
2018-12-20T23:09:09.533Z,97.33
2018-12-20T23:11:37.092Z,85.37
2018-12-20T23:14:04.857Z,86.03
2018-12-20T23:16:32.370Z,106.37
2018-12-20T23:18:59.904Z,133.40
2018-12-20T23:21:27.518Z,87.90
2018-12-20T23:23:55.057Z,91.33
2018-12-20T23:26:22.593Z,88.70
2018-12-20T23:28:50.295Z,93.17
2018-12-20T23:31:17.881Z,75.67
2018-12-20T23:33:45.430Z,90.00
2018-12-20T23:36:13.063Z,87.37
2018-12-20T23:38:40.629Z,85.47
2018-12-20T23:41:18.061Z,92.33
2018-12-20T23:43:45.650Z,94.00
2018-12-20T23:46:13.244Z,77.63
2018-12-20T23:48:40.868Z,73.80
2018-12-20T23:51:13.511Z,71.10
2018-12-20T23:53:36.053Z,72.20
2018-12-20T23:56:03.758Z,79.60
2018-12-20T23:58:31.293Z,81.17
